createdAt,value
2018-05-17T00:03:52.984Z,4.97
2018-05-17T00:05:53.669Z,5.39
2018-05-17T00:09:55.018Z,5.24
2018-05-17T00:15:56.369Z,5.91
2018-05-17T00:19:57.770Z,7.52
2018-05-17T00:25:59.153Z,6.15
2018-05-17T00:32:00.573Z,4.03
2018-05-17T00:36:02.043Z,5.12
2018-05-17T00:42:03.398Z,4.6
2018-05-17T00:46:05.636Z,4.86
2018-05-17T00:52:06.334Z,5.03
2018-05-17T00:58:07.071Z,7.28
2018-05-17T01:02:07.829Z,7.24
2018-05-17T01:08:08.589Z,7.42
2018-05-17T01:12:09.368Z,6.11
2018-05-17T01:14:10.156Z,6.18
2018-05-17T01:18:10.977Z,6.07
2018-05-17T01:24:11.733Z,6.41
2018-05-17T01:28:12.469Z,5.46
2018-05-17T01:34:13.225Z,6.32
2018-05-17T01:40:13.999Z,6.15
2018-05-17T01:44:14.686Z,5.74
2018-05-17T01:50:15.518Z,9.02
2018-05-17T01:54:16.297Z,8.23
2018-05-17T02:00:17.429Z,6.45
2018-05-17T02:06:18.134Z,5.07
2018-05-17T02:10:18.875Z,5.33
2018-05-17T02:16:19.640Z,7.63
2018-05-17T02:20:20.393Z,7.03
2018-05-17T02:22:21.119Z,7.05
2018-05-17T02:26:21.834Z,6.18
2018-05-17T02:32:22.815Z,4.64
2018-05-17T02:36:23.585Z,4.45
2018-05-17T02:42:24.310Z,4.62
2018-05-17T02:48:25.320Z,7.09
2018-05-17T02:52:25.962Z,6.43
2018-05-17T02:58:26.782Z,5.53
2018-05-17T03:02:27.528Z,6.59
2018-05-17T03:08:28.295Z,6.59
2018-05-17T03:14:29.038Z,5.75
2018-05-17T03:18:29.862Z,6.16
2018-05-17T03:24:30.626Z,5.95
2018-05-17T03:28:31.369Z,5.81
2018-05-17T03:30:32.369Z,6.4
2018-05-17T03:34:33.060Z,4.88
2018-05-17T03:40:33.831Z,7.48
2018-05-17T03:44:34.544Z,5.39
2018-05-17T03:50:35.337Z,6.49
2018-05-17T03:56:36.057Z,6.61
2018-05-17T04:00:36.829Z,5.7
2018-05-17T04:06:37.618Z,7.29
2018-05-17T04:10:38.259Z,8.41
2018-05-17T04:12:38.946Z,10.73
2018-05-17T04:16:39.726Z,8.71
2018-05-17T04:22:40.520Z,10.27
2018-05-17T04:26:41.267Z,10.22
2018-05-17T04:32:41.990Z,8.61
2018-05-17T04:38:42.869Z,9.67
2018-05-17T04:42:43.647Z,9.54
2018-05-17T04:48:44.375Z,9.5
2018-05-17T04:52:45.171Z,11.34
2018-05-17T04:58:47.546Z,8.18
2018-05-17T05:04:48.253Z,13.84
2018-05-17T05:08:49.026Z,11
2018-05-17T05:14:49.777Z,8.94
2018-05-17T05:18:50.460Z,11.1
2018-05-17T05:20:51.165Z,11.05
2018-05-17T05:24:51.908Z,12.7
2018-05-17T05:30:52.657Z,10.06
2018-05-17T05:34:53.514Z,10.36
2018-05-17T05:40:54.222Z,11.67
2018-05-17T05:46:54.932Z,9.92
2018-05-17T05:50:55.645Z,11.26
2018-05-17T05:56:56.465Z,11.56
2018-05-17T06:00:57.232Z,10.66
2018-05-17T06:02:58.327Z,13.45
2018-05-17T06:06:59.228Z,13.62
2018-05-17T06:12:59.963Z,13.18
2018-05-17T06:17:00.808Z,13.02
2018-05-17T06:23:01.674Z,12.59
2018-05-17T06:27:02.466Z,14.87
2018-05-17T06:29:03.241Z,12.06
2018-05-17T06:33:04.017Z,11.83
2018-05-17T06:39:09.496Z,12.82
2018-05-17T06:43:10.422Z,12.42
2018-05-17T06:49:11.081Z,13.33
2018-05-17T06:55:11.907Z,12.75
2018-05-17T06:59:12.601Z,13.19
2018-05-17T07:05:13.434Z,12.88
2018-05-17T07:09:14.232Z,14.25
2018-05-17T07:15:15.212Z,20.55
2018-05-17T07:21:15.988Z,13.98
2018-05-17T07:25:16.720Z,14.42
2018-05-17T07:31:17.466Z,13.49
2018-05-17T07:35:18.150Z,13.75
2018-05-17T07:37:18.795Z,14.22
2018-05-17T07:41:19.505Z,14.23
2018-05-17T07:47:20.396Z,12.13
2018-05-17T07:51:21.420Z,10.6
2018-05-17T07:57:22.135Z,11.69
2018-05-17T08:03:22.984Z,14.73
2018-05-17T08:07:23.702Z,14.1
2018-05-17T08:13:24.542Z,12.07
2018-05-17T08:17:25.383Z,13.69
2018-05-17T08:19:26.169Z,9.93
2018-05-17T08:23:26.906Z,11.92
2018-05-17T08:29:27.682Z,13.41
2018-05-17T08:33:28.377Z,12.27
2018-05-17T08:39:29.307Z,11.27
2018-05-17T08:43:30.315Z,11.04
2018-05-17T08:45:31.047Z,13.81
2018-05-17T08:49:31.917Z,12.65
2018-05-17T08:55:32.672Z,12.99
2018-05-17T08:59:33.532Z,10.58
2018-05-17T09:05:34.338Z,11.46
2018-05-17T09:11:35.021Z,12.24
2018-05-17T09:15:36.086Z,8.42
2018-05-17T09:21:36.778Z,12.9
2018-05-17T09:25:37.536Z,10.57
2018-05-17T09:27:38.191Z,9
2018-05-17T09:31:38.958Z,10.97
2018-05-17T09:37:39.737Z,9.43
2018-05-17T09:41:40.621Z,13.26
2018-05-17T09:47:41.326Z,9.07
2018-05-17T09:53:51.288Z,10.1
2018-05-17T09:57:52.449Z,10.8
2018-05-17T10:03:53.200Z,11.3
2018-05-17T10:07:53.939Z,10.4
2018-05-17T10:13:54.734Z,10.73
2018-05-17T10:19:55.523Z,11.77
2018-05-17T10:23:56.223Z,10.32
2018-05-17T10:29:57.057Z,10.85
2018-05-17T10:33:57.785Z,8.69
2018-05-17T10:39:58.554Z,7.41
2018-05-17T10:45:59.349Z,7.05
2018-05-17T10:50:00.189Z,7.65
2018-05-17T10:56:00.865Z,9.57
2018-05-17T11:00:01.937Z,8.32
2018-05-17T11:02:02.296Z,10.23
2018-05-17T11:06:03.076Z,10.73
2018-05-17T11:12:03.762Z,10.17
2018-05-17T11:16:04.496Z,9.09
2018-05-17T11:22:05.258Z,12.85
2018-05-17T11:28:06.466Z,9.2
2018-05-17T11:32:07.372Z,11.22
2018-05-17T11:38:08.142Z,10.75
2018-05-17T11:42:12.883Z,12.01
2018-05-17T11:48:13.537Z,7.12
2018-05-17T11:54:14.329Z,8.75
2018-05-17T11:58:15.168Z,7.87
2018-05-17T12:04:16.003Z,9.62
2018-05-17T12:08:17.483Z,8.69
2018-05-17T12:10:18.232Z,11.07
2018-05-17T12:14:19.015Z,9.39
2018-05-17T12:20:19.977Z,8.74
2018-05-17T12:24:21.134Z,12.44
2018-05-17T12:30:22.479Z,10.32
2018-05-17T12:36:23.281Z,7.78
2018-05-17T12:40:23.942Z,6.66
2018-05-17T12:46:24.786Z,7.31
2018-05-17T12:50:26.186Z,8.13
2018-05-17T12:56:27.010Z,5.7
2018-05-17T13:02:27.748Z,6.19
2018-05-17T13:06:28.534Z,7.35
2018-05-17T13:12:29.601Z,5.18
2018-05-17T13:16:30.390Z,6.54
2018-05-17T13:18:31.132Z,5.14
2018-05-17T13:22:31.836Z,4.42
2018-05-17T13:28:32.576Z,6.04
2018-05-17T13:32:33.326Z,5.01
2018-05-17T13:38:34.054Z,5.26
2018-05-17T13:44:34.872Z,4.19
2018-05-17T13:48:35.616Z,6.53
2018-05-17T13:54:36.415Z,5.03
2018-05-17T13:58:37.286Z,5.2
2018-05-17T14:00:38.104Z,6.15
2018-05-17T14:04:38.833Z,4.74
2018-05-17T14:10:39.655Z,7.49
2018-05-17T14:14:40.469Z,9.89
2018-05-17T14:20:41.397Z,5.55
2018-05-17T14:24:42.092Z,6.47
2018-05-17T14:26:42.799Z,6.85
2018-05-17T14:30:43.810Z,7.91
2018-05-17T14:36:44.695Z,5.41
2018-05-17T14:40:45.513Z,5.61
2018-05-17T14:46:46.257Z,6.03
2018-05-17T14:52:47.021Z,5.73
2018-05-17T14:56:47.839Z,5.52
2018-05-17T15:02:48.633Z,5.88
2018-05-17T15:06:49.490Z,4.49
2018-05-17T15:08:50.238Z,4.31
2018-05-17T15:12:51.031Z,5.08
2018-05-17T15:18:52.124Z,6.31
2018-05-17T15:22:52.944Z,5.32
2018-05-17T15:28:53.663Z,4.81
2018-05-17T15:34:54.279Z,5.73
2018-05-17T15:38:55.081Z,5.34
2018-05-17T15:44:55.884Z,5.05
2018-05-17T15:48:56.604Z,5.67
2018-05-17T15:54:57.409Z,6.54
2018-05-17T16:00:58.101Z,8.13
2018-05-17T16:04:58.875Z,6.93
2018-05-17T16:10:59.625Z,4.64
2018-05-17T16:15:00.682Z,4.84
2018-05-17T16:17:01.106Z,6.08
2018-05-17T16:21:01.926Z,14.38
2018-05-17T16:27:02.894Z,5.91
2018-05-17T16:31:03.720Z,4.02
2018-05-17T16:37:04.573Z,6.61
2018-05-17T16:43:05.277Z,4.68
2018-05-17T16:47:06.063Z,4.48
2018-05-17T16:53:06.930Z,6.14
2018-05-17T16:57:07.765Z,3.63
2018-05-17T16:59:08.457Z,4.47
2018-05-17T17:03:09.204Z,5.77
2018-05-17T17:09:10.022Z,4.93
2018-05-17T17:13:10.829Z,3.98
2018-05-17T17:19:11.572Z,5.8
2018-05-17T17:23:12.342Z,4.65
2018-05-17T17:25:13.063Z,5.61
2018-05-17T17:29:13.882Z,5.48
2018-05-17T17:35:14.579Z,5.55
2018-05-17T17:39:15.476Z,5.37
2018-05-17T17:45:16.461Z,4.82
2018-05-17T17:51:17.352Z,5.58
2018-05-17T17:55:18.082Z,6.49
2018-05-17T18:01:19.027Z,6.93
2018-05-17T18:05:19.701Z,5.37
2018-05-17T18:07:20.490Z,9.27
2018-05-17T18:11:21.376Z,5.95
2018-05-17T18:17:22.105Z,5.92
2018-05-17T18:21:22.825Z,6.28
2018-05-17T18:27:23.671Z,6.66
2018-05-17T18:31:24.448Z,6.42
2018-05-17T18:33:25.175Z,6.72
2018-05-17T18:37:25.864Z,6.69
2018-05-17T18:43:26.645Z,7.87
2018-05-17T18:47:27.419Z,8.49
2018-05-17T18:53:28.381Z,5.98
2018-05-17T18:59:29.207Z,7.01
2018-05-17T19:03:29.902Z,7.45
2018-05-17T19:09:30.669Z,5.96
2018-05-17T19:13:31.430Z,5.91
2018-05-17T19:15:32.157Z,6.48
2018-05-17T19:19:32.954Z,7.57
2018-05-17T19:25:33.884Z,8.17
2018-05-17T19:29:34.631Z,7.78
2018-05-17T19:35:35.785Z,7.41
2018-05-17T19:41:36.727Z,9.69
2018-05-17T19:45:37.578Z,7.21
2018-05-17T19:51:38.535Z,12.53
2018-05-17T19:55:39.357Z,14.29
2018-05-17T20:01:40.312Z,8.3
2018-05-17T20:07:41.167Z,13.28
2018-05-17T20:11:42.003Z,12.25
2018-05-17T20:17:42.957Z,7.69
2018-05-17T20:21:43.891Z,9.22
2018-05-17T20:23:44.624Z,8.44
2018-05-17T20:27:45.422Z,7.86
2018-05-17T20:33:46.199Z,8.23
2018-05-17T20:37:46.933Z,8.7
2018-05-17T20:43:47.789Z,12.25
2018-05-17T20:49:48.576Z,10.98
2018-05-17T20:53:49.431Z,10.3
2018-05-17T20:59:50.180Z,9.72
2018-05-17T21:03:51.005Z,10.81
2018-05-17T21:05:51.721Z,10.64
2018-05-17T21:09:52.551Z,11.48
2018-05-17T21:15:53.408Z,11.61
2018-05-17T21:19:54.223Z,11.72
2018-05-17T21:25:54.982Z,10.9
2018-05-17T21:29:55.826Z,10.1
2018-05-17T21:31:56.594Z,10.17
2018-05-17T21:35:57.278Z,9.47
2018-05-17T21:41:58.048Z,8.8
2018-05-17T21:45:58.876Z,7.27
2018-05-17T21:51:59.596Z,8.34
2018-05-17T21:58:00.306Z,11.09
2018-05-17T22:02:01.269Z,11.5
2018-05-17T22:08:02.191Z,10.73
2018-05-17T22:12:03.073Z,10.56
2018-05-17T22:14:03.784Z,10.84
2018-05-17T22:18:04.471Z,10.58
2018-05-17T22:24:05.314Z,10.8
2018-05-17T22:28:06.077Z,10.92
2018-05-17T22:34:06.732Z,9.68
2018-05-17T22:40:07.480Z,10.13
2018-05-17T22:44:08.125Z,9.59
2018-05-17T22:50:08.808Z,10.56
2018-05-17T22:54:09.649Z,8.57
2018-05-17T23:00:10.424Z,9.49
2018-05-17T23:06:11.139Z,8.82
2018-05-17T23:10:11.968Z,9.87
2018-05-17T23:16:12.775Z,10.47
2018-05-17T23:20:13.639Z,8.42
2018-05-17T23:22:14.340Z,9.07
2018-05-17T23:26:15.013Z,9.96
2018-05-17T23:32:15.804Z,8.38
2018-05-17T23:36:16.630Z,7.94
2018-05-17T23:42:17.369Z,8.39
2018-05-17T23:48:18.174Z,7.7
2018-05-17T23:52:19.049Z,7.48
2018-05-17T23:58:19.918Z,9.3
